createdAt,value
2022-10-24T00:00:05.309Z,76.99
2022-10-24T00:02:58.272Z,77.19
2022-10-24T00:05:31.264Z,77.28
2022-10-24T00:08:04.950Z,77.17
2022-10-24T00:10:37.656Z,77.12
2022-10-24T00:13:10.271Z,77.19
2022-10-24T00:15:46.222Z,77.21
2022-10-24T00:18:21.210Z,77.01
2022-10-24T00:20:53.752Z,76.85
2022-10-24T00:23:26.374Z,76.76
2022-10-24T00:26:02.324Z,76.65
2022-10-24T00:28:37.281Z,76.60
2022-10-24T00:31:14.255Z,76.67
2022-10-24T00:33:47.071Z,76.61
2022-10-24T00:36:24.126Z,76.70
2022-10-24T00:38:56.960Z,76.66
2022-10-24T00:41:40.169Z,76.72
2022-10-24T00:44:28.336Z,76.76
2022-10-24T00:47:10.021Z,76.65
2022-10-24T00:50:04.769Z,76.59
2022-10-24T00:52:44.673Z,76.76
2022-10-24T00:55:18.158Z,76.74
2022-10-24T00:57:57.251Z,76.63
2022-10-24T01:00:33.577Z,76.54
2022-10-24T01:03:06.276Z,76.37
2022-10-24T01:05:48.321Z,76.21
2022-10-24T01:08:19.591Z,75.87
2022-10-24T01:11:25.540Z,75.66
2022-10-24T01:14:08.879Z,75.60
2022-10-24T01:16:50.617Z,76.02
2022-10-24T01:19:53.921Z,76.49
2022-10-24T01:22:34.422Z,76.00
2022-10-24T01:25:20.731Z,76.07
2022-10-24T01:28:09.691Z,76.52
2022-10-24T01:30:57.951Z,76.43
2022-10-24T01:33:36.229Z,76.35
2022-10-24T01:36:18.982Z,76.38
2022-10-24T01:39:03.970Z,76.18
2022-10-24T01:41:37.337Z,76.14
2022-10-24T01:44:18.290Z,76.01
2022-10-24T01:47:02.169Z,75.78
2022-10-24T01:49:38.587Z,75.76
2022-10-24T01:54:53.042Z,75.84
2022-10-24T01:57:36.696Z,75.72
2022-10-24T02:00:12.004Z,75.93
2022-10-24T02:02:55.743Z,76.69
2022-10-24T02:05:51.266Z,76.33
2022-10-24T02:08:30.326Z,76.24
2022-10-24T02:11:07.615Z,76.19
2022-10-24T02:13:59.812Z,76.20
2022-10-24T02:16:33.093Z,76.14
2022-10-24T02:19:07.130Z,76.05
2022-10-24T02:22:18.627Z,76.09
2022-10-24T02:24:59.449Z,76.03
2022-10-24T02:27:49.806Z,76.12
2022-10-24T02:30:28.585Z,75.91
2022-10-24T02:33:02.206Z,75.90
2022-10-24T02:35:38.851Z,76.12
2022-10-24T02:38:23.094Z,76.31
2022-10-24T02:40:57.155Z,76.55
2022-10-24T02:43:31.145Z,76.34
2022-10-24T02:46:05.054Z,76.25
2022-10-24T02:48:44.884Z,76.03
2022-10-24T02:51:19.688Z,75.91
2022-10-24T02:53:53.373Z,76.01
2022-10-24T02:56:26.184Z,75.87
2022-10-24T02:58:58.880Z,75.89
2022-10-24T03:01:35.353Z,75.86
2022-10-24T03:04:07.945Z,75.78
2022-10-24T03:06:41.294Z,75.80
2022-10-24T03:09:14.033Z,75.57
2022-10-24T03:11:48.036Z,75.67
2022-10-24T03:14:20.508Z,75.50
2022-10-24T03:16:53.157Z,75.57
2022-10-24T03:19:25.449Z,75.44
2022-10-24T03:21:58.011Z,75.26
2022-10-24T03:24:43.451Z,75.25
2022-10-24T03:27:19.705Z,75.08
2022-10-24T03:29:52.577Z,75.07
2022-10-24T03:35:04.598Z,75.01
2022-10-24T03:37:37.131Z,74.98
2022-10-24T03:40:10.298Z,75.10
2022-10-24T03:42:45.323Z,75.04
2022-10-24T03:45:18.846Z,75.07
2022-10-24T03:47:52.004Z,75.04
2022-10-24T03:50:24.669Z,75.15
2022-10-24T03:52:58.060Z,75.33
2022-10-24T03:55:32.086Z,75.43
2022-10-24T03:58:08.735Z,75.48
2022-10-24T04:00:45.445Z,75.43
2022-10-24T04:03:17.986Z,75.54
2022-10-24T04:05:50.479Z,75.81
2022-10-24T04:08:23.035Z,75.91
2022-10-24T04:10:56.145Z,75.93
2022-10-24T04:13:33.445Z,76.09
2022-10-24T04:16:06.139Z,76.18
2022-10-24T04:18:41.726Z,76.18
2022-10-24T04:21:21.845Z,76.17
2022-10-24T04:23:55.056Z,76.47
2022-10-24T04:26:27.885Z,76.52
2022-10-24T04:29:05.808Z,76.57
2022-10-24T04:31:38.664Z,76.27
2022-10-24T04:34:11.568Z,76.12
2022-10-24T04:36:44.003Z,76.31
2022-10-24T04:39:16.834Z,76.63
2022-10-24T04:41:49.699Z,76.84
2022-10-24T04:44:22.537Z,76.74
2022-10-24T04:46:56.006Z,76.75
2022-10-24T04:49:29.094Z,76.57
2022-10-24T04:52:03.610Z,76.84
2022-10-24T04:54:37.266Z,76.76
2022-10-24T04:57:10.332Z,76.57
2022-10-24T04:59:42.907Z,76.45
2022-10-24T05:02:16.343Z,76.54
2022-10-24T05:04:49.514Z,76.56
2022-10-24T05:07:26.169Z,76.57
2022-10-24T05:10:12.169Z,76.61
2022-10-24T05:12:45.280Z,76.53
2022-10-24T05:15:19.242Z,76.43
2022-10-24T05:17:51.637Z,76.39
2022-10-24T05:20:24.184Z,76.45
2022-10-24T05:22:57.532Z,76.30
2022-10-24T05:25:30.445Z,76.09
2022-10-24T05:28:03.942Z,76.01
2022-10-24T05:30:36.965Z,75.99
2022-10-24T05:33:09.964Z,75.92
2022-10-24T05:35:44.219Z,75.84
2022-10-24T05:38:17.578Z,75.87
2022-10-24T05:40:52.098Z,75.94
2022-10-24T05:43:25.001Z,75.76
2022-10-24T05:45:58.167Z,75.73
2022-10-24T05:48:31.064Z,75.70
2022-10-24T05:51:03.832Z,75.79
2022-10-24T05:53:36.702Z,75.94
2022-10-24T05:56:13.975Z,75.72
2022-10-24T05:58:46.977Z,75.73
2022-10-24T06:01:20.524Z,75.59
2022-10-24T06:03:57.149Z,75.49
2022-10-24T06:06:29.991Z,75.48
2022-10-24T06:09:02.830Z,75.34
2022-10-24T06:11:36.288Z,75.28
2022-10-24T06:14:09.516Z,75.16
2022-10-24T06:16:42.188Z,75.02
2022-10-24T06:19:14.463Z,74.92
2022-10-24T06:21:47.006Z,74.60
2022-10-24T06:24:24.221Z,74.86
2022-10-24T06:26:57.142Z,74.76
2022-10-24T06:29:30.025Z,74.47
2022-10-24T06:32:03.265Z,74.33
2022-10-24T06:34:36.967Z,74.18
2022-10-24T06:37:10.134Z,74.23
2022-10-24T06:39:43.290Z,74.35
2022-10-24T06:42:16.282Z,74.42
2022-10-24T06:44:49.382Z,74.40
2022-10-24T06:47:22.426Z,74.31
2022-10-24T06:49:59.258Z,74.33
2022-10-24T06:52:32.218Z,74.33
2022-10-24T06:55:05.980Z,74.20
2022-10-24T06:57:39.190Z,74.18
2022-10-24T07:00:12.556Z,74.04
2022-10-24T07:02:45.783Z,74.02
2022-10-24T07:05:19.156Z,73.81
2022-10-24T07:07:52.375Z,73.79
2022-10-24T07:10:25.490Z,73.92
2022-10-24T07:12:58.434Z,73.72
2022-10-24T07:15:31.206Z,73.67
2022-10-24T07:18:04.103Z,73.62
2022-10-24T07:23:15.996Z,73.59
2022-10-24T07:25:49.013Z,73.40
2022-10-24T07:28:22.074Z,73.10
2022-10-24T07:30:55.285Z,72.88
2022-10-24T07:33:28.890Z,72.47
2022-10-24T07:36:02.934Z,72.38
2022-10-24T07:38:36.570Z,72.04
2022-10-24T07:41:09.883Z,71.85
2022-10-24T07:43:43.015Z,71.58
2022-10-24T07:46:18.227Z,71.26
2022-10-24T07:48:55.371Z,71.05
2022-10-24T07:51:32.288Z,70.97
2022-10-24T07:54:05.490Z,70.82
2022-10-24T07:56:38.527Z,70.53
2022-10-24T07:59:29.794Z,70.35
2022-10-24T08:02:06.252Z,70.17
2022-10-24T08:04:39.734Z,70.02
2022-10-24T08:07:16.860Z,69.90
2022-10-24T08:09:51.817Z,69.93
2022-10-24T08:12:24.786Z,69.91
2022-10-24T08:14:57.878Z,69.74
2022-10-24T08:17:30.905Z,69.55
2022-10-24T08:20:03.599Z,69.62
2022-10-24T08:22:36.384Z,69.41
2022-10-24T08:25:10.647Z,69.03
2022-10-24T08:27:44.523Z,69.25
2022-10-24T08:30:18.105Z,69.47
2022-10-24T08:32:50.751Z,69.53
2022-10-24T08:35:23.819Z,69.57
2022-10-24T08:37:56.736Z,69.85
2022-10-24T08:40:30.119Z,69.91
2022-10-24T08:43:02.912Z,69.97
2022-10-24T08:46:09.293Z,70.01
2022-10-24T08:48:51.842Z,70.18
2022-10-24T08:51:44.558Z,70.33
2022-10-24T08:54:23.157Z,70.34
2022-10-24T08:57:00.828Z,70.83
2022-10-24T08:59:38.469Z,71.05
2022-10-24T09:02:13.530Z,71.34
2022-10-24T09:05:02.102Z,71.69
2022-10-24T09:07:34.632Z,72.02
2022-10-24T09:10:55.370Z,71.58
2022-10-24T09:13:30.334Z,71.83
2022-10-24T09:16:02.931Z,71.60
2022-10-24T09:18:43.794Z,71.55
2022-10-24T09:21:17.816Z,72.02
2022-10-24T09:23:52.173Z,72.30
2022-10-24T09:26:34.903Z,72.26
2022-10-24T09:29:07.702Z,72.15
2022-10-24T09:31:43.525Z,72.24
2022-10-24T09:34:16.634Z,71.86
2022-10-24T09:36:49.475Z,71.21
2022-10-24T09:39:33.196Z,70.91
2022-10-24T09:42:06.963Z,70.58
2022-10-24T09:44:44.285Z,70.40
2022-10-24T09:47:31.495Z,70.37
2022-10-24T09:50:04.535Z,69.98
2022-10-24T09:52:37.166Z,70.02
2022-10-24T09:55:22.162Z,69.19
2022-10-24T09:58:00.904Z,67.65
2022-10-24T10:00:37.121Z,66.87
2022-10-24T10:03:24.125Z,67.50
2022-10-24T10:05:59.247Z,67.64
2022-10-24T10:08:37.494Z,67.33
2022-10-24T10:11:15.650Z,67.03
2022-10-24T10:13:56.107Z,66.19
2022-10-24T10:16:32.392Z,66.11
2022-10-24T10:19:20.378Z,65.91
2022-10-24T10:22:02.977Z,64.91
2022-10-24T10:24:43.870Z,65.10
2022-10-24T10:27:36.113Z,64.72
2022-10-24T10:30:22.240Z,64.59
2022-10-24T10:33:07.137Z,64.42
2022-10-24T10:35:47.730Z,63.90
2022-10-24T10:38:43.540Z,63.86
2022-10-24T10:41:33.410Z,63.51
2022-10-24T10:44:41.721Z,63.06
2022-10-24T10:47:27.712Z,62.58
2022-10-24T10:50:02.091Z,62.24
2022-10-24T10:52:46.457Z,62.01
2022-10-24T10:55:24.834Z,61.20
2022-10-24T10:58:32.382Z,60.98
2022-10-24T11:01:30.165Z,60.74
2022-10-24T11:04:38.941Z,60.29
2022-10-24T11:07:38.697Z,60.34
2022-10-24T11:10:25.965Z,59.91
2022-10-24T11:12:59.987Z,57.94
2022-10-24T11:15:44.715Z,57.53
2022-10-24T11:18:23.813Z,56.34
2022-10-24T11:21:11.337Z,57.79
2022-10-24T11:23:53.796Z,57.93
2022-10-24T11:26:44.175Z,57.70
2022-10-24T11:29:54.409Z,57.61
2022-10-24T11:32:38.510Z,57.40
2022-10-24T11:35:33.693Z,57.12
2022-10-24T11:38:23.515Z,57.00
2022-10-24T11:41:03.184Z,56.34
2022-10-24T11:43:43.944Z,56.49
2022-10-24T11:46:31.325Z,56.05
2022-10-24T11:49:31.260Z,55.92
2022-10-24T11:52:33.127Z,55.85
2022-10-24T11:55:17.642Z,55.76
2022-10-24T11:57:54.503Z,55.25
2022-10-24T12:00:57.681Z,55.07
2022-10-24T12:04:13.679Z,54.87
2022-10-24T12:06:54.766Z,54.72
2022-10-24T12:09:51.082Z,54.61
2022-10-24T12:12:51.475Z,52.61
2022-10-24T12:15:46.930Z,53.33
2022-10-24T12:18:41.370Z,54.19
2022-10-24T12:21:21.043Z,54.19
2022-10-24T12:24:03.877Z,53.35
2022-10-24T12:26:37.654Z,53.57
2022-10-24T12:29:25.666Z,53.35
2022-10-24T12:31:58.221Z,53.21
2022-10-24T12:34:30.289Z,52.89
2022-10-24T12:37:11.696Z,52.84
2022-10-24T12:39:47.586Z,52.87
2022-10-24T12:42:22.873Z,52.76
2022-10-24T12:45:47.063Z,52.47
2022-10-24T12:48:40.484Z,52.25
2022-10-24T12:51:30.523Z,52.06
2022-10-24T12:54:05.627Z,51.89
2022-10-24T12:56:41.400Z,51.64
2022-10-24T12:59:24.456Z,51.25
2022-10-24T13:02:17.489Z,51.10
2022-10-24T13:05:20.859Z,51.18
2022-10-24T13:08:35.923Z,50.62
2022-10-24T13:11:52.242Z,50.59
2022-10-24T13:14:47.240Z,50.91
2022-10-24T13:17:44.578Z,50.55
2022-10-24T13:20:28.092Z,50.83
2022-10-24T13:23:25.511Z,50.68
2022-10-24T13:26:00.522Z,50.56
2022-10-24T13:28:39.912Z,50.47
2022-10-24T13:31:12.371Z,50.58
2022-10-24T13:33:50.163Z,50.61
2022-10-24T13:36:28.586Z,50.55
2022-10-24T13:39:03.892Z,50.60
2022-10-24T13:41:37.766Z,50.54
2022-10-24T13:44:39.721Z,50.63
2022-10-24T13:47:35.503Z,50.42
2022-10-24T13:50:24.099Z,50.57
2022-10-24T13:53:01.088Z,50.69
2022-10-24T13:55:48.706Z,50.70
2022-10-24T13:58:25.922Z,50.66
2022-10-24T14:01:03.356Z,50.14
2022-10-24T14:03:40.104Z,50.63
2022-10-24T14:06:17.378Z,49.65
2022-10-24T14:09:04.221Z,50.19
2022-10-24T14:11:51.160Z,50.35
2022-10-24T14:14:40.467Z,50.44
2022-10-24T14:17:27.274Z,50.60
2022-10-24T14:20:21.565Z,50.76
2022-10-24T14:22:54.988Z,50.81
2022-10-24T14:25:40.316Z,50.78
2022-10-24T14:28:20.904Z,50.79
2022-10-24T14:31:02.271Z,50.80
2022-10-24T14:33:55.686Z,51.12
2022-10-24T14:36:33.385Z,51.17
2022-10-24T14:39:07.076Z,51.19
2022-10-24T14:41:43.837Z,51.31
2022-10-24T14:44:20.033Z,51.45
2022-10-24T14:47:21.475Z,51.48
2022-10-24T14:49:55.054Z,51.53
2022-10-24T14:52:32.718Z,51.74
2022-10-24T14:55:22.041Z,51.82
2022-10-24T14:57:57.376Z,51.78
2022-10-24T15:00:38.243Z,51.91
2022-10-24T15:03:13.020Z,52.02
2022-10-24T15:05:56.576Z,52.13
2022-10-24T15:08:38.578Z,52.19
2022-10-24T15:11:31.857Z,52.27
2022-10-24T15:14:07.009Z,52.55
2022-10-24T15:16:42.728Z,52.84
2022-10-24T15:19:22.197Z,52.90
2022-10-24T15:21:55.078Z,53.03
2022-10-24T15:24:28.820Z,53.24
2022-10-24T15:27:14.762Z,53.29
2022-10-24T15:29:47.403Z,53.52
2022-10-24T15:32:20.062Z,53.63
2022-10-24T15:34:56.515Z,53.73
2022-10-24T15:37:29.247Z,53.93
2022-10-24T15:40:06.376Z,54.04
2022-10-24T15:42:39.616Z,54.70
2022-10-24T15:45:19.917Z,54.74
2022-10-24T15:47:53.498Z,54.68
2022-10-24T15:50:26.777Z,54.80
2022-10-24T15:53:00.818Z,54.94
2022-10-24T15:55:33.900Z,54.94
2022-10-24T15:58:06.445Z,55.24
2022-10-24T16:00:40.411Z,55.36
2022-10-24T16:03:18.730Z,55.36
2022-10-24T16:06:00.129Z,55.89
2022-10-24T16:08:33.203Z,56.36
2022-10-24T16:11:09.248Z,56.64
2022-10-24T16:13:43.130Z,56.86
2022-10-24T16:16:16.085Z,57.24
2022-10-24T16:18:49.070Z,57.70
2022-10-24T16:21:24.265Z,59.30
2022-10-24T16:23:57.289Z,59.23
2022-10-24T16:26:30.270Z,59.69
2022-10-24T16:29:03.133Z,59.91
2022-10-24T16:31:35.776Z,59.26
2022-10-24T16:34:09.341Z,61.26
2022-10-24T16:36:42.210Z,61.58
2022-10-24T16:39:16.889Z,62.24
2022-10-24T16:41:49.498Z,62.46
2022-10-24T16:44:22.386Z,62.83
2022-10-24T16:46:55.977Z,62.69
2022-10-24T16:49:28.851Z,62.22
2022-10-24T16:52:01.563Z,61.37
2022-10-24T16:54:34.135Z,61.27
2022-10-24T16:57:06.759Z,61.14
2022-10-24T16:59:39.967Z,61.55
2022-10-24T17:02:15.278Z,61.21
2022-10-24T17:04:48.202Z,61.13
2022-10-24T17:07:21.038Z,61.06
2022-10-24T17:09:53.651Z,60.23
2022-10-24T17:12:27.916Z,59.95
2022-10-24T17:15:01.122Z,59.31
2022-10-24T17:17:34.354Z,58.11
2022-10-24T17:20:09.347Z,56.82
2022-10-24T17:22:44.851Z,56.64
2022-10-24T17:25:22.846Z,57.04
2022-10-24T17:27:56.121Z,56.84
2022-10-24T17:30:30.716Z,56.07
2022-10-24T17:33:03.796Z,56.18
2022-10-24T17:35:42.426Z,56.37
2022-10-24T17:38:28.544Z,55.72
2022-10-24T17:41:07.640Z,56.01
2022-10-24T17:43:40.223Z,55.48
2022-10-24T17:46:15.183Z,55.24
2022-10-24T17:48:47.942Z,55.77
2022-10-24T17:51:24.263Z,55.73
2022-10-24T17:53:56.760Z,55.72
2022-10-24T17:56:29.790Z,55.82
2022-10-24T17:59:03.049Z,55.88
2022-10-24T18:01:37.046Z,56.03
2022-10-24T18:04:10.021Z,56.22
2022-10-24T18:06:43.496Z,56.34
2022-10-24T18:09:16.238Z,56.40
2022-10-24T18:11:49.345Z,56.41
2022-10-24T18:14:22.391Z,56.65
2022-10-24T18:16:55.317Z,56.62
2022-10-24T18:19:27.985Z,56.89
2022-10-24T18:22:00.808Z,57.01
2022-10-24T18:24:33.152Z,57.18
2022-10-24T18:27:05.581Z,57.16
2022-10-24T18:32:15.085Z,57.45
2022-10-24T18:34:48.344Z,57.56
2022-10-24T18:37:21.072Z,57.59
2022-10-24T18:39:54.137Z,57.83
2022-10-24T18:42:44.538Z,57.81
2022-10-24T18:45:26.176Z,57.91
2022-10-24T18:47:58.818Z,57.80
2022-10-24T18:50:31.493Z,57.87
2022-10-24T18:53:22.466Z,58.33
2022-10-24T18:55:55.536Z,58.12
2022-10-24T18:58:27.983Z,58.51
2022-10-24T19:01:02.212Z,58.95
2022-10-24T19:03:39.059Z,58.88
2022-10-24T19:06:29.928Z,58.93
2022-10-24T19:09:02.522Z,58.83
2022-10-24T19:11:35.356Z,59.72
2022-10-24T19:14:08.252Z,59.93
2022-10-24T19:16:46.360Z,60.07
2022-10-24T19:19:27.918Z,59.38
2022-10-24T19:22:00.820Z,59.66
2022-10-24T19:24:34.767Z,59.60
2022-10-24T19:27:07.824Z,59.74
2022-10-24T19:29:40.465Z,60.07
2022-10-24T19:32:13.449Z,59.92
2022-10-24T19:34:46.487Z,59.68
2022-10-24T19:37:19.816Z,60.53
2022-10-24T19:39:52.517Z,59.89
2022-10-24T19:42:25.210Z,59.97
2022-10-24T19:44:58.268Z,60.09
2022-10-24T19:47:31.308Z,59.86
2022-10-24T19:50:04.247Z,59.97
2022-10-24T19:52:36.859Z,60.02
2022-10-24T19:55:10.141Z,60.18
2022-10-24T19:57:42.416Z,60.08
2022-10-24T20:00:15.373Z,60.01
2022-10-24T20:02:47.993Z,60.10
2022-10-24T20:05:20.617Z,60.13
2022-10-24T20:07:53.149Z,60.22
2022-10-24T20:10:25.707Z,60.22
2022-10-24T20:12:58.258Z,60.27
2022-10-24T20:15:31.132Z,60.46
2022-10-24T20:18:04.611Z,60.57
2022-10-24T20:20:38.213Z,60.59
2022-10-24T20:23:11.027Z,60.57
2022-10-24T20:25:43.660Z,60.67
2022-10-24T20:28:16.434Z,60.69
2022-10-24T20:30:50.160Z,60.83
2022-10-24T20:33:22.958Z,60.96
2022-10-24T20:35:59.770Z,61.40
2022-10-24T20:38:35.780Z,61.87
2022-10-24T20:41:08.569Z,61.88
2022-10-24T20:43:41.303Z,62.05
2022-10-24T20:46:14.307Z,61.99
2022-10-24T20:48:46.921Z,61.78
2022-10-24T20:51:20.859Z,61.70
2022-10-24T20:53:53.553Z,61.54
2022-10-24T20:56:27.287Z,61.61
2022-10-24T20:58:59.852Z,61.72
2022-10-24T21:01:32.827Z,61.86
2022-10-24T21:04:05.551Z,61.77
2022-10-24T21:06:38.180Z,61.81
2022-10-24T21:09:10.696Z,61.89
2022-10-24T21:11:42.991Z,62.06
2022-10-24T21:14:17.712Z,62.40
2022-10-24T21:16:51.165Z,62.48
2022-10-24T21:19:24.077Z,62.30
2022-10-24T21:21:57.009Z,62.22
2022-10-24T21:24:29.855Z,62.24
2022-10-24T21:27:03.076Z,62.21
2022-10-24T21:29:36.094Z,63.04
2022-10-24T21:32:09.492Z,62.92
2022-10-24T21:34:42.193Z,63.38
2022-10-24T21:37:14.771Z,62.95
2022-10-24T21:39:47.185Z,62.82
2022-10-24T21:42:19.844Z,62.83
2022-10-24T21:44:52.688Z,62.93
2022-10-24T21:47:25.056Z,62.96
2022-10-24T21:49:57.414Z,62.97
2022-10-24T21:52:30.023Z,63.28
2022-10-24T21:55:02.624Z,63.21
2022-10-24T21:57:35.107Z,63.04
2022-10-24T22:00:08.511Z,63.63
2022-10-24T22:02:41.088Z,63.38
2022-10-24T22:05:13.909Z,63.45
2022-10-24T22:07:48.906Z,63.53
2022-10-24T22:10:22.200Z,63.43
2022-10-24T22:12:54.591Z,63.64
2022-10-24T22:15:27.013Z,63.57
2022-10-24T22:17:59.414Z,64.56
2022-10-24T22:20:32.001Z,64.30
2022-10-24T22:23:04.508Z,64.16
2022-10-24T22:25:37.646Z,64.17
2022-10-24T22:28:10.530Z,64.15
2022-10-24T22:30:44.140Z,64.24
2022-10-24T22:33:37.481Z,64.35
2022-10-24T22:36:42.174Z,64.40
2022-10-24T22:39:22.746Z,64.60
2022-10-24T22:41:55.721Z,64.60
2022-10-24T22:44:28.431Z,64.72
2022-10-24T22:47:34.193Z,64.84
2022-10-24T22:50:18.503Z,64.92
2022-10-24T22:52:54.331Z,64.87
2022-10-24T22:55:36.322Z,65.36
2022-10-24T22:58:09.421Z,66.32
2022-10-24T23:00:42.141Z,65.74
2022-10-24T23:03:43.423Z,65.54
2022-10-24T23:06:26.078Z,65.58
2022-10-24T23:08:58.555Z,65.56
2022-10-24T23:11:31.455Z,65.58
2022-10-24T23:14:04.613Z,65.74
2022-10-24T23:16:44.422Z,65.87
2022-10-24T23:19:22.637Z,65.87
2022-10-24T23:21:59.150Z,65.78
2022-10-24T23:24:31.786Z,65.98
2022-10-24T23:27:15.852Z,65.91
2022-10-24T23:29:49.232Z,66.08
2022-10-24T23:32:27.809Z,66.33
2022-10-24T23:35:04.352Z,66.62
2022-10-24T23:37:39.462Z,66.64
2022-10-24T23:40:20.888Z,66.67
2022-10-24T23:42:54.569Z,66.65
2022-10-24T23:45:30.006Z,66.74
2022-10-24T23:48:10.891Z,66.94
2022-10-24T23:51:05.164Z,66.94
2022-10-24T23:53:50.444Z,67.12
2022-10-24T23:56:25.230Z,67.21
2022-10-24T23:58:58.499Z,67.07
